Currently 76°F in French Valley, California, USA
76°F
76°F / 68°F
calm
0.00"
Friday, July 30, 2021 7:46 AM PDT

French Valley, California Weather Summary
Last 36 Hours

Temperature Winds Hourly Humidity Dewpoint
Time Report Norm Report Norm Max Gusts Precip. Rpt. Norm Rpt. Norm Pressure
1,2Fri 07:46 AM  75.7°F  69°F  calm  1 mph  none  0.00"  58%  78%  59°F  62°F  30.00"
Fri 07:00 AM  69.9°F  67°F  calm  calm  none  0.00"  77%  82%  62°F  61°F  29.99"
3Fri 06:32 AM  68.4°F  66°F  calm  calm  none  ----  80%  83%  62°F  60°F  29.99"
Fri 06:00 AM  69.4°F  66°F  calm  calm  none  0.00"  76%  83%  61°F  60°F  29.98"
Fri 05:00 AM  69.1°F  66°F  calm  calm  none  0.00"  75%  82%  61°F  60°F  29.96"
Fri 04:00 AM  70.0°F  67°F  calm  calm  none  0.00"  71%  82%  60°F  61°F  29.97"
Fri 03:00 AM  70.5°F  67°F  calm  1 mph  none  0.00"  78%  81%  63°F  61°F  29.97"
Fri 02:00 AM  71.4°F  68°F  calm  1 mph  none  0.00"  77%  79%  63°F  61°F  29.98"
Fri 01:00 AM  72.4°F  69°F  calm  1 mph  none  0.00"  75%  78%  64°F  61°F  29.98"
Fri 12:00 AM  72.3°F  70°F  calm  1 mph  none  0.00"  73%  76%  63°F  62°F  29.98"
Thu 11:00 PM  74.6°F  71°F  calm  1 mph  none  0.00"  70%  74%  64°F  62°F  29.99"
Thu 10:00 PM  76.5°F  72°F  calm  2 mph  none  0.00"  65%  72%  63°F  62°F  29.98"
Thu 09:00 PM  77.4°F  74°F  calm  3 mph  none  0.00"  64%  68%  64°F  62°F  29.98"
Thu 08:00 PM  79.9°F  76°F  calm  4 mph  none  0.00"  59%  62%  64°F  62°F  29.97"
Thu 07:00 PM  83.3°F  80°F  calm  6 mph  none  0.00"  52%  54%  64°F  61°F  29.95"
Thu 06:00 PM  86.3°F  83°F  calm  7 mph  none  0.00"  47%  47%  63°F  60°F  29.93"
Thu 05:00 PM  90.1°F  86°F  calm  7 mph  none  0.00"  42%  42%  64°F  60°F  29.93"
Thu 04:00 PM  92.2°F  88°F  calm  7 mph  none  0.00"  39%  40%  63°F  60°F  29.93"
Thu 03:00 PM  94.9°F  89°F  calm  7 mph  none  0.00"  35%  38%  62°F  60°F  29.94"
Thu 02:00 PM  96.7°F  90°F  calm  6 mph  none  0.00"  32%  38%  61°F  60°F  29.93"
Thu 01:00 PM  97.2°F  89°F  calm  5 mph  none  0.00"  28%  39%  58°F  60°F  29.95"
Thu 12:00 PM  95.4°F  87°F  calm  4 mph  none  0.00"  28%  42%  56°F  60°F  29.96"
Thu 11:00 AM  92.7°F  84°F  calm  3 mph  none  0.00"  27%  47%  53°F  61°F  29.99"
Thu 10:00 AM  89.2°F  80°F  calm  2 mph  none  0.00"  30%  56%  53°F  62°F  30.00"
Thu 09:00 AM  81.4°F  75°F  calm  1 mph  none  0.00"  50%  67%  61°F  63°F  30.02"
Thu 08:00 AM  75.8°F  70°F  calm  1 mph  none  0.00"  58%  76%  59°F  62°F  30.03"
Thu 07:00 AM  69.6°F  67°F  calm  calm  none  0.00"  71%  82%  60°F  61°F  30.02"
Thu 06:00 AM  68.6°F  66°F  calm  calm  none  0.00"  73%  83%  59°F  60°F  30.02"
Thu 05:00 AM  69.7°F  66°F  calm  calm  none  0.00"  71%  82%  59°F  60°F  30.00"
Thu 04:00 AM  70.7°F  67°F  calm  calm  none  0.00"  68%  82%  59°F  61°F  30.00"
Thu 03:00 AM  72.4°F  67°F  calm  1 mph  none  0.00"  62%  81%  58°F  61°F  30.00"
Thu 02:00 AM  73.1°F  68°F  calm  1 mph  none  0.00"  63%  79%  59°F  61°F  30.02"
Thu 01:00 AM  72.9°F  69°F  calm  1 mph  none  0.00"  65%  78%  60°F  61°F  30.02"
Thu 12:00 AM  73.5°F  70°F  calm  1 mph  none  0.00"  72%  77%  64°F  62°F  30.04"
Wed 11:00 PM  74.5°F  71°F  calm  1 mph  none  0.00"  69%  74%  64°F  62°F  30.05"
Wed 10:00 PM  76.2°F  72°F  calm  2 mph  none  0.00"  66%  72%  64°F  62°F  30.05"
Wed 09:00 PM  78.0°F  73°F  calm  3 mph  none  0.00"  63%  69%  64°F  62°F  30.05"
Wed 08:00 PM  80.4°F  76°F  calm  5 mph  none  0.00"  58%  62%  64°F  62°F  30.03"

  1. Current weather data. No green row appears if the current weather data is also the high or low for the current day.
  2. High temperature for the current day.
  3. Low temperature for the current day.

The French Valley, California weather pages are a service of WeatherCurrents. French Valley is located in southwestern Riverside County, California, north of Temecula, east of Murrieta, and south of Winchester. French Valley is bordered by Lake Skinner.
Copyright ©2021  WeatherCurrents. All rights reserved. - Submit questions and comments - Privacy Policy

This page automatically refreshes every 10 minutes.